createdAt,value
2018-06-28T00:01:11.376Z,8.00
2018-06-28T00:03:38.932Z,8.20
2018-06-28T00:06:06.555Z,8.83
2018-06-28T00:08:34.129Z,8.00
2018-06-28T00:11:01.665Z,8.50
2018-06-28T00:13:29.264Z,8.37
2018-06-28T00:15:56.828Z,8.80
2018-06-28T00:18:24.416Z,6.80
2018-06-28T00:20:51.965Z,8.10
2018-06-28T00:23:19.485Z,8.30
2018-06-28T00:25:47.035Z,8.20
2018-06-28T00:28:14.593Z,7.40
2018-06-28T00:30:42.145Z,9.57
2018-06-28T00:33:10.287Z,8.37
2018-06-28T00:35:37.853Z,8.47
2018-06-28T00:38:05.377Z,7.73
2018-06-28T00:40:32.920Z,7.57
2018-06-28T00:43:00.528Z,8.30
2018-06-28T00:45:28.112Z,7.07
2018-06-28T00:47:55.637Z,8.87
2018-06-28T00:50:23.210Z,8.30
2018-06-28T00:52:50.729Z,8.40
2018-06-28T00:55:18.278Z,9.13
2018-06-28T00:57:45.826Z,7.70
2018-06-28T01:00:13.413Z,8.20
2018-06-28T01:02:40.965Z,9.77
2018-06-28T01:05:08.536Z,9.90
2018-06-28T01:07:36.077Z,9.30
2018-06-28T01:10:03.684Z,9.13
2018-06-28T01:12:31.259Z,8.80
2018-06-28T01:14:58.783Z,7.20
2018-06-28T01:17:26.351Z,8.43
2018-06-28T01:19:53.889Z,9.27
2018-06-28T01:22:21.465Z,8.77
2018-06-28T01:24:49.026Z,10.90
2018-06-28T01:27:16.556Z,9.63
2018-06-28T01:29:44.132Z,9.27
2018-06-28T01:32:11.677Z,10.03
2018-06-28T01:34:39.277Z,8.43
2018-06-28T01:37:06.873Z,9.73
2018-06-28T01:39:34.424Z,12.30
2018-06-28T01:42:13.409Z,8.13
2018-06-28T01:44:41.004Z,8.07
2018-06-28T01:47:08.541Z,8.47
2018-06-28T01:49:36.094Z,9.60
2018-06-28T01:52:03.661Z,9.10
2018-06-28T01:54:31.200Z,10.47
2018-06-28T01:56:58.754Z,8.80
2018-06-28T01:59:26.297Z,11.67
2018-06-28T02:01:53.828Z,9.30
2018-06-28T02:04:21.377Z,9.97
2018-06-28T02:06:48.889Z,11.53
2018-06-28T02:09:16.466Z,10.70
2018-06-28T02:11:43.999Z,9.23
2018-06-28T02:14:11.575Z,9.40
2018-06-28T02:16:39.103Z,9.00
2018-06-28T02:19:06.629Z,9.53
2018-06-28T02:21:34.172Z,9.13
2018-06-28T02:24:01.697Z,8.80
2018-06-28T02:26:29.260Z,10.90
2018-06-28T02:28:56.812Z,9.33
2018-06-28T02:31:24.366Z,9.33
2018-06-28T02:33:51.885Z,12.90
2018-06-28T02:36:19.436Z,8.07
2018-06-28T02:38:46.980Z,7.73
2018-06-28T02:41:14.528Z,10.40
2018-06-28T02:43:42.081Z,9.53
2018-06-28T02:46:09.642Z,8.03
2018-06-28T02:48:37.178Z,8.30
2018-06-28T02:51:04.756Z,11.80
2018-06-28T02:53:32.305Z,11.00
2018-06-28T02:55:59.889Z,8.37
2018-06-28T02:58:27.416Z,9.03
2018-06-28T03:00:54.950Z,8.27
2018-06-28T03:03:22.538Z,10.03
2018-06-28T03:05:50.095Z,9.17
2018-06-28T03:08:17.680Z,7.00
2018-06-28T03:10:45.215Z,6.77
2018-06-28T03:13:12.801Z,8.77
2018-06-28T03:15:40.329Z,13.43
2018-06-28T03:18:07.878Z,7.37
2018-06-28T03:20:35.416Z,7.53
2018-06-28T03:23:02.989Z,7.73
2018-06-28T03:25:30.452Z,7.60
2018-06-28T03:27:58.144Z,7.90
2018-06-28T03:30:25.675Z,8.47
2018-06-28T03:32:53.214Z,9.20
2018-06-28T03:35:20.727Z,6.90
2018-06-28T03:37:48.425Z,8.07
2018-06-28T03:40:15.829Z,8.23
2018-06-28T03:42:43.357Z,9.53
2018-06-28T03:45:10.953Z,8.43
2018-06-28T03:47:38.480Z,6.47
2018-06-28T03:50:06.061Z,9.87
2018-06-28T03:52:33.585Z,9.67
2018-06-28T03:55:01.129Z,6.83
2018-06-28T03:57:28.722Z,8.53
2018-06-28T03:59:56.245Z,7.83
2018-06-28T04:02:24.353Z,10.50
2018-06-28T04:04:51.900Z,8.43
2018-06-28T04:07:19.413Z,6.50
2018-06-28T04:09:47.051Z,5.70
2018-06-28T04:12:14.596Z,6.20
2018-06-28T04:14:42.137Z,8.30
2018-06-28T04:17:09.684Z,8.63
2018-06-28T04:19:37.237Z,9.67
2018-06-28T04:22:04.826Z,6.53
2018-06-28T04:24:32.361Z,7.77
2018-06-28T04:26:59.902Z,7.00
2018-06-28T04:29:27.440Z,7.70
2018-06-28T04:31:55.010Z,6.40
2018-06-28T04:34:22.542Z,8.70
2018-06-28T04:36:50.116Z,9.00
2018-06-28T04:39:17.660Z,6.93
2018-06-28T04:41:45.208Z,6.23
2018-06-28T04:44:12.751Z,6.00
2018-06-28T04:46:40.286Z,6.60
2018-06-28T04:49:07.803Z,7.50
2018-06-28T04:51:35.341Z,6.37
2018-06-28T04:54:03.206Z,5.50
2018-06-28T04:56:30.780Z,5.47
2018-06-28T04:58:58.312Z,6.63
2018-06-28T05:01:25.897Z,9.13
2018-06-28T05:03:53.544Z,8.07
2018-06-28T05:06:21.067Z,5.43
2018-06-28T05:08:48.797Z,6.63
2018-06-28T05:11:16.337Z,5.97
2018-06-28T05:13:43.912Z,4.93
2018-06-28T05:16:11.462Z,4.93
2018-06-28T05:18:39.049Z,4.67
2018-06-28T05:21:06.644Z,4.73
2018-06-28T05:23:34.188Z,4.43
2018-06-28T05:26:01.871Z,5.40
2018-06-28T05:28:29.676Z,5.80
2018-06-28T05:30:57.280Z,4.90
2018-06-28T05:33:24.828Z,4.50
2018-06-28T05:35:52.917Z,4.90
2018-06-28T05:38:20.481Z,4.93
2018-06-28T05:40:48.017Z,4.07
2018-06-28T05:43:15.580Z,4.20
2018-06-28T05:45:43.173Z,3.90
2018-06-28T05:48:11.004Z,3.87
2018-06-28T05:50:38.659Z,3.80
2018-06-28T05:53:06.882Z,3.90
2018-06-28T05:55:36.008Z,4.27
2018-06-28T05:58:03.867Z,4.33
2018-06-28T06:00:31.484Z,3.80
2018-06-28T06:02:59.638Z,3.60
2018-06-28T06:05:27.993Z,3.37
2018-06-28T06:07:55.572Z,3.80
2018-06-28T06:10:23.292Z,3.70
2018-06-28T06:12:51.829Z,4.27
2018-06-28T06:15:19.772Z,2.83
2018-06-28T06:17:47.510Z,3.40
2018-06-28T06:20:15.570Z,3.80
2018-06-28T06:22:43.145Z,3.53
2018-06-28T06:25:10.808Z,2.90
2018-06-28T06:27:39.608Z,3.03
2018-06-28T06:30:08.060Z,2.93
2018-06-28T06:32:35.673Z,2.90
2018-06-28T06:35:03.438Z,3.10
2018-06-28T06:37:31.191Z,2.90
2018-06-28T06:39:58.756Z,3.13
2018-06-28T06:42:26.336Z,3.00
2018-06-28T06:44:53.897Z,2.83
2018-06-28T06:47:21.476Z,2.90
2018-06-28T06:49:48.996Z,3.40
2018-06-28T06:52:16.549Z,3.00
2018-06-28T06:54:44.101Z,2.67
2018-06-28T06:57:11.668Z,2.97
2018-06-28T06:59:39.313Z,2.63
2018-06-28T07:02:06.908Z,2.70
2018-06-28T07:04:34.540Z,2.83
2018-06-28T07:07:02.101Z,2.63
2018-06-28T07:09:29.626Z,2.80
2018-06-28T07:11:57.160Z,3.30
2018-06-28T07:14:24.688Z,2.57
2018-06-28T07:16:52.250Z,2.57
2018-06-28T07:19:19.845Z,2.50
2018-06-28T07:21:47.489Z,2.50
2018-06-28T07:24:15.263Z,2.80
2018-06-28T07:26:42.836Z,3.43
2018-06-28T07:29:10.467Z,3.07
2018-06-28T07:31:38.018Z,2.73
2018-06-28T07:34:05.787Z,3.00
2018-06-28T07:36:34.261Z,2.70
2018-06-28T07:39:11.141Z,2.70
2018-06-28T07:41:39.202Z,2.63
2018-06-28T07:44:06.892Z,2.60
2018-06-28T07:46:35.571Z,3.10
2018-06-28T07:49:03.323Z,2.90
2018-06-28T07:51:31.607Z,2.80
2018-06-28T07:53:59.347Z,2.37
2018-06-28T07:56:26.855Z,2.60
2018-06-28T07:58:54.601Z,2.60
2018-06-28T08:01:22.192Z,3.00
2018-06-28T08:03:50.133Z,2.90
2018-06-28T08:06:17.893Z,2.87
2018-06-28T08:08:45.614Z,2.80
2018-06-28T08:11:13.264Z,2.83
2018-06-28T08:13:40.793Z,2.77
2018-06-28T08:16:10.034Z,2.57
2018-06-28T08:18:37.823Z,3.00
2018-06-28T08:21:05.485Z,3.20
2018-06-28T08:23:33.060Z,3.17
2018-06-28T08:26:02.697Z,3.00
2018-06-28T08:28:30.629Z,2.90
2018-06-28T08:31:00.719Z,2.90
2018-06-28T08:33:33.397Z,2.80
2018-06-28T08:38:51.845Z,2.60
2018-06-28T08:41:19.508Z,2.97
2018-06-28T08:43:48.554Z,3.67
2018-06-28T08:46:20.023Z,3.40
2018-06-28T08:48:51.047Z,3.03
2018-06-28T08:51:20.148Z,3.40
2018-06-28T08:53:50.888Z,3.20
2018-06-28T08:56:20.914Z,3.20
2018-06-28T08:58:52.412Z,3.80
2018-06-28T09:01:20.995Z,3.57
2018-06-28T09:03:51.887Z,3.57
2018-06-28T09:06:21.194Z,3.17
2018-06-28T09:08:54.274Z,3.10
2018-06-28T09:11:22.614Z,3.30
2018-06-28T09:14:08.760Z,3.30
2018-06-28T09:16:52.503Z,3.73
2018-06-28T09:19:25.272Z,3.23
2018-06-28T09:21:56.411Z,3.40
2018-06-28T09:24:28.394Z,4.10
2018-06-28T09:26:56.527Z,3.30
2018-06-28T09:29:27.964Z,3.40
2018-06-28T09:31:59.186Z,3.60
2018-06-28T09:34:29.134Z,4.20
2018-06-28T09:36:56.705Z,3.40
2018-06-28T09:39:30.376Z,3.50
2018-06-28T09:42:00.484Z,4.10
2018-06-28T09:44:32.143Z,3.80
2018-06-28T09:47:02.560Z,3.77
2018-06-28T09:49:32.215Z,4.53
2018-06-28T09:52:02.958Z,3.97
2018-06-28T09:54:34.800Z,4.10
2018-06-28T09:57:04.790Z,3.03
2018-06-28T11:06:55.154Z,3.13
2018-06-28T11:09:22.861Z,3.10
2018-06-28T11:11:50.824Z,2.93
2018-06-28T11:14:18.575Z,3.37
2018-06-28T11:16:46.153Z,3.30
2018-06-28T11:19:13.731Z,3.70
2018-06-28T11:21:41.721Z,3.20
2018-06-28T11:24:09.386Z,3.20
2018-06-28T11:26:36.933Z,3.37
2018-06-28T11:29:05.003Z,3.73
2018-06-28T11:31:33.049Z,3.40
2018-06-28T11:34:01.343Z,3.90
2018-06-28T11:36:29.521Z,2.83
2018-06-28T11:38:57.124Z,3.47
2018-06-28T11:41:24.761Z,3.03
2018-06-28T11:43:52.733Z,2.73
2018-06-28T11:46:20.335Z,3.20
2018-06-28T11:48:48.093Z,2.97
2018-06-28T11:51:15.720Z,3.40
2018-06-28T11:53:43.284Z,2.70
2018-06-28T11:56:10.904Z,3.10
2018-06-28T11:58:38.531Z,2.87
2018-06-28T12:01:06.099Z,2.87
2018-06-28T12:03:33.640Z,2.77
2018-06-28T12:06:01.109Z,2.63
2018-06-28T12:08:28.621Z,2.80
2018-06-28T12:10:56.172Z,3.00
2018-06-28T12:13:23.693Z,3.10
2018-06-28T12:15:51.253Z,2.90
2018-06-28T12:18:18.772Z,2.37
2018-06-28T12:20:46.320Z,3.00
2018-06-28T12:23:13.908Z,2.87
2018-06-28T12:25:41.508Z,2.83
2018-06-28T12:28:09.240Z,2.83
2018-06-28T12:30:36.994Z,3.00
2018-06-28T12:33:05.229Z,3.00
2018-06-28T12:35:33.100Z,3.03
2018-06-28T12:38:00.964Z,3.20
2018-06-28T12:40:28.571Z,3.33
2018-06-28T12:42:56.264Z,2.77
2018-06-28T12:45:23.836Z,2.80
2018-06-28T12:48:04.934Z,2.70
2018-06-28T12:50:32.509Z,2.93
2018-06-28T12:53:02.234Z,2.97
2018-06-28T12:56:42.233Z,2.90
2018-06-28T12:59:12.102Z,3.07
2018-06-28T13:01:40.048Z,3.07
2018-06-28T13:04:07.730Z,3.10
2018-06-28T13:06:35.518Z,3.10
2018-06-28T13:09:05.704Z,2.57
2018-06-28T13:11:33.357Z,2.90
2018-06-28T13:14:00.988Z,3.07
2018-06-28T13:16:28.877Z,3.20
2018-06-28T13:18:56.455Z,2.50
2018-06-28T13:21:24.136Z,2.90
2018-06-28T13:23:51.797Z,3.27
2018-06-28T13:26:19.488Z,2.97
2018-06-28T13:28:47.302Z,3.20
2018-06-28T13:31:15.135Z,2.83
2018-06-28T13:33:43.488Z,3.10
2018-06-28T13:36:11.294Z,3.17
2018-06-28T13:38:39.027Z,2.63
2018-06-28T13:41:07.333Z,2.93
2018-06-28T13:43:34.933Z,2.90
2018-06-28T13:46:02.769Z,3.00
2018-06-28T13:48:30.550Z,3.03
2018-06-28T13:50:58.178Z,2.60
2018-06-28T13:53:25.892Z,3.00
2018-06-28T13:55:53.526Z,2.63
2018-06-28T13:58:21.149Z,3.43
2018-06-28T14:00:48.902Z,3.20
2018-06-28T14:03:16.732Z,2.87
2018-06-28T14:05:44.406Z,2.80
2018-06-28T14:08:12.319Z,3.30
2018-06-28T14:10:40.416Z,3.30
2018-06-28T14:13:08.402Z,3.20
2018-06-28T14:15:36.195Z,3.30
2018-06-28T14:18:03.910Z,3.03
2018-06-28T14:20:31.835Z,2.83
2018-06-28T14:23:00.513Z,2.90
2018-06-28T14:25:28.132Z,2.93
2018-06-28T14:27:55.846Z,2.87
2018-06-28T14:30:23.404Z,2.90
2018-06-28T14:32:51.064Z,3.13
2018-06-28T14:35:18.708Z,3.30
2018-06-28T14:37:46.584Z,3.27
2018-06-28T14:40:14.192Z,2.80
2018-06-28T14:42:41.860Z,2.70
2018-06-28T14:45:09.526Z,2.90
2018-06-28T14:47:38.167Z,3.13
2018-06-28T14:50:05.828Z,2.73
2018-06-28T14:52:33.575Z,3.00
2018-06-28T14:55:01.209Z,2.80
2018-06-28T14:57:29.273Z,3.00
2018-06-28T14:59:57.437Z,2.73
2018-06-28T15:02:25.184Z,2.60
2018-06-28T15:04:52.948Z,2.57
2018-06-28T15:07:20.832Z,2.70
2018-06-28T15:09:48.573Z,2.50
2018-06-28T15:12:16.624Z,2.97
2018-06-28T15:14:44.455Z,2.40
2018-06-28T15:19:39.241Z,2.90
2018-06-28T15:22:07.086Z,2.27
2018-06-28T15:24:34.997Z,2.23
2018-06-28T15:27:03.069Z,3.13
2018-06-28T15:29:31.147Z,2.67
2018-06-28T15:31:59.006Z,2.67
2018-06-28T15:34:26.804Z,2.70
2018-06-28T15:36:54.504Z,2.30
2018-06-28T15:39:23.612Z,2.50
2018-06-28T15:41:51.509Z,2.43
2018-06-28T15:44:19.310Z,3.63
2018-06-28T15:46:46.969Z,2.50
2018-06-28T15:49:14.752Z,2.20
2018-06-28T15:51:43.129Z,2.30
2018-06-28T15:54:10.937Z,2.60
2018-06-28T15:56:39.238Z,2.70
2018-06-28T15:59:06.973Z,2.63
2018-06-28T16:01:34.950Z,2.43
2018-06-28T16:04:02.698Z,2.40
2018-06-28T16:06:30.972Z,2.70
2018-06-28T16:08:58.947Z,2.57
2018-06-28T16:11:26.720Z,2.70
2018-06-28T16:13:54.421Z,2.50
2018-06-28T16:16:22.155Z,2.40
2018-06-28T16:18:49.915Z,2.60
2018-06-28T16:21:18.580Z,2.30
2018-06-28T16:23:46.304Z,2.43
2018-06-28T16:26:14.254Z,22.13
2018-06-28T16:28:42.192Z,8.83
2018-06-28T16:31:10.027Z,4.37
2018-06-28T16:33:38.284Z,2.97
2018-06-28T16:36:06.209Z,2.90
2018-06-28T16:38:34.061Z,2.90
2018-06-28T16:41:01.997Z,3.03
2018-06-28T16:43:29.760Z,2.40
2018-06-28T16:45:57.505Z,2.90
2018-06-28T16:48:25.393Z,2.50
2018-06-28T16:50:53.228Z,2.80
2018-06-28T16:53:21.076Z,2.67
2018-06-28T16:55:48.822Z,2.60
2018-06-28T16:58:16.486Z,2.43
2018-06-28T17:00:44.353Z,2.83
2018-06-28T17:03:14.173Z,2.60
2018-06-28T17:05:42.143Z,2.60
2018-06-28T17:08:10.141Z,2.80
2018-06-28T17:10:38.000Z,2.50
2018-06-28T17:13:06.067Z,2.53
2018-06-28T17:15:36.001Z,2.80
2018-06-28T17:18:03.966Z,2.33
2018-06-28T17:20:32.190Z,2.70
2018-06-28T17:22:59.909Z,2.73
2018-06-28T17:25:27.732Z,2.33
2018-06-28T17:27:55.543Z,2.40
2018-06-28T17:30:24.265Z,2.43
2018-06-28T17:32:53.036Z,2.50
2018-06-28T17:35:20.653Z,2.63
2018-06-28T17:37:48.527Z,2.87
2018-06-28T17:40:16.422Z,2.70
2018-06-28T17:42:44.174Z,2.50
2018-06-28T17:45:11.952Z,2.70
2018-06-28T17:47:40.401Z,2.57
2018-06-28T17:50:08.761Z,2.37
2018-06-28T17:52:36.486Z,2.50
2018-06-28T17:55:04.802Z,2.77
2018-06-28T17:57:32.501Z,2.67
2018-06-28T18:00:00.263Z,2.33
2018-06-28T18:02:27.932Z,2.90
2018-06-28T18:04:55.975Z,2.50
2018-06-28T18:07:23.632Z,2.47
2018-06-28T18:09:51.904Z,2.60
2018-06-28T18:12:19.928Z,2.40
2018-06-28T18:14:47.665Z,2.87
2018-06-28T18:17:16.822Z,2.70
2018-06-28T18:19:44.580Z,2.80
2018-06-28T18:22:12.134Z,2.43
2018-06-28T18:24:39.699Z,2.80
2018-06-28T18:27:07.276Z,2.63
2018-06-28T18:29:35.045Z,2.57
2018-06-28T18:32:02.563Z,3.10
2018-06-28T18:34:30.125Z,3.43
2018-06-28T18:36:57.726Z,3.40
2018-06-28T18:39:25.277Z,2.93
2018-06-28T18:41:52.868Z,2.70
2018-06-28T18:44:20.391Z,3.40
2018-06-28T18:46:47.960Z,3.03
2018-06-28T18:49:15.477Z,3.83
2018-06-28T18:51:43.021Z,2.97
2018-06-28T18:54:10.543Z,2.50
2018-06-28T18:56:38.092Z,2.67
2018-06-28T18:59:05.646Z,2.63
2018-06-28T19:01:33.196Z,2.63
2018-06-28T19:04:00.777Z,2.50
2018-06-28T19:06:28.296Z,2.63
2018-06-28T19:08:55.904Z,2.73
2018-06-28T19:11:23.559Z,2.90
2018-06-28T19:14:54.484Z,2.70
2018-06-28T19:17:21.930Z,2.90
2018-06-28T19:19:49.484Z,3.07
2018-06-28T19:22:22.715Z,3.20
2018-06-28T19:24:50.379Z,3.00
2018-06-28T19:27:17.924Z,2.80
2018-06-28T19:29:51.278Z,2.67
2018-06-28T19:32:24.529Z,2.80
2018-06-28T19:34:52.116Z,2.60
2018-06-28T19:37:25.393Z,3.10
2018-06-28T19:39:58.674Z,3.10
2018-06-28T19:42:31.872Z,2.97
2018-06-28T19:44:59.428Z,2.90
2018-06-28T19:47:26.952Z,3.03
2018-06-28T19:50:00.197Z,3.20
2018-06-28T19:52:33.373Z,2.83
2018-06-28T19:55:00.944Z,3.40
2018-06-28T19:57:28.508Z,3.50
2018-06-28T19:59:56.050Z,3.63
2018-06-28T20:02:29.367Z,3.80
2018-06-28T20:04:56.952Z,4.07
2018-06-28T20:07:24.482Z,3.80
2018-06-28T20:09:52.016Z,4.20
2018-06-28T20:12:25.102Z,4.17
2018-06-28T20:14:58.441Z,3.87
2018-06-28T20:17:31.724Z,4.43
2018-06-28T20:20:04.921Z,4.53
2018-06-28T20:22:32.428Z,4.30
2018-06-28T20:25:00.200Z,3.90
2018-06-28T20:27:33.560Z,4.10
2018-06-28T20:30:06.811Z,4.57
2018-06-28T20:32:40.148Z,4.27
2018-06-28T20:35:07.696Z,4.30
2018-06-28T20:37:35.249Z,4.40
2018-06-28T20:40:02.822Z,4.27
2018-06-28T20:42:30.386Z,4.27
2018-06-28T20:44:57.952Z,4.83
2018-06-28T20:47:25.485Z,4.30
2018-06-28T20:49:53.004Z,4.53
2018-06-28T20:52:20.578Z,4.77
2018-06-28T20:54:48.105Z,4.10
2018-06-28T20:57:15.653Z,4.30
2018-06-28T20:59:43.191Z,4.20
2018-06-28T21:02:10.724Z,4.23
2018-06-28T21:04:38.231Z,4.40
2018-06-28T21:07:05.799Z,4.30
2018-06-28T21:09:33.321Z,4.40
2018-06-28T21:12:00.856Z,4.30
2018-06-28T21:14:28.408Z,4.00
2018-06-28T21:16:56.060Z,4.67
2018-06-28T21:19:23.687Z,4.20
2018-06-28T21:21:51.204Z,4.73
2018-06-28T21:24:18.734Z,4.13
2018-06-28T21:26:46.317Z,4.53
2018-06-28T21:29:13.836Z,4.40
2018-06-28T21:31:41.376Z,4.37
2018-06-28T21:34:08.921Z,4.43
2018-06-28T21:36:36.444Z,4.50
2018-06-28T21:39:06.744Z,4.80
2018-06-28T21:41:34.285Z,4.20
2018-06-28T21:44:01.832Z,4.67
2018-06-28T21:46:29.340Z,4.60
2018-06-28T21:48:56.868Z,5.10
2018-06-28T21:51:24.389Z,4.10
2018-06-28T21:53:51.924Z,4.30
2018-06-28T21:56:19.433Z,4.63
2018-06-28T21:58:46.947Z,4.30
2018-06-28T22:01:31.634Z,4.23
2018-06-28T22:03:59.145Z,4.90
2018-06-28T22:06:26.696Z,4.33
2018-06-28T22:08:54.234Z,5.13
2018-06-28T22:11:21.793Z,4.50
2018-06-28T22:13:49.316Z,4.90
2018-06-28T22:16:16.848Z,4.70
2018-06-28T22:18:44.393Z,5.10
2018-06-28T22:21:11.968Z,4.83
2018-06-28T22:23:39.469Z,4.43
2018-06-28T22:26:07.051Z,4.70
2018-06-28T22:28:34.588Z,4.70
2018-06-28T22:31:02.132Z,4.87
2018-06-28T22:33:29.671Z,4.60
2018-06-28T22:35:57.213Z,4.97
2018-06-28T22:38:24.717Z,4.67
2018-06-28T22:40:52.252Z,4.97
2018-06-28T22:43:19.794Z,5.53
2018-06-28T22:45:47.317Z,6.00
2018-06-28T22:48:14.848Z,4.80
2018-06-28T22:50:42.396Z,4.83
2018-06-28T22:53:09.932Z,4.60
2018-06-28T22:55:37.452Z,5.50
2018-06-28T22:58:05.037Z,4.90
2018-06-28T23:00:32.588Z,5.17
2018-06-28T23:03:00.120Z,5.10
2018-06-28T23:05:27.660Z,4.90
2018-06-28T23:07:55.243Z,5.33
2018-06-28T23:10:22.796Z,5.00
2018-06-28T23:12:50.377Z,4.87
2018-06-28T23:15:17.896Z,5.40
2018-06-28T23:17:45.524Z,5.33
2018-06-28T23:20:13.076Z,5.13
2018-06-28T23:22:49.324Z,5.07
2018-06-28T23:25:16.885Z,4.83
2018-06-28T23:27:45.285Z,4.97
2018-06-28T23:30:13.121Z,5.10
2018-06-28T23:32:40.689Z,5.20
2018-06-28T23:35:08.590Z,6.30
2018-06-28T23:37:36.221Z,5.70
2018-06-28T23:40:04.400Z,5.77
2018-06-28T23:42:32.032Z,5.60
2018-06-28T23:44:59.721Z,5.13
2018-06-28T23:47:27.260Z,5.17
2018-06-28T23:49:54.812Z,5.47
2018-06-28T23:52:22.494Z,5.60
2018-06-28T23:54:50.045Z,5.67
2018-06-28T23:57:18.112Z,6.00
2018-06-28T23:59:45.696Z,5.50
